sensor_id;sensor_type;location;lat;lon;timestamp;P1;durP1;ratioP1;P2;durP2;ratioP2
50745;SDS011;36711;51.972;21.204;2024-01-15T15:13:32;13.30;;;7.50;;
50745;SDS011;36711;51.972;21.204;2024-01-15T15:20:29;14.10;;;7.90;;
50745;SDS011;36711;51.972;21.204;2024-01-15T15:22:54;11.40;;;7.00;;
50745;SDS011;36711;51.972;21.204;2024-01-15T15:25:21;13.80;;;7.70;;
50745;SDS011;36711;51.972;21.204;2024-01-15T15:27:47;11.90;;;7.00;;
50745;SDS011;36711;51.972;21.204;2024-01-15T15:30:13;11.00;;;6.70;;
50745;SDS011;36711;51.972;21.204;2024-01-15T15:32:38;12.30;;;6.80;;
50745;SDS011;36711;51.972;21.204;2024-01-15T15:35:03;13.10;;;7.10;;
50745;SDS011;36711;51.972;21.204;2024-01-15T15:37:29;12.50;;;6.80;;
50745;SDS011;36711;51.972;21.204;2024-01-15T15:39:55;11.70;;;6.90;;
50745;SDS011;36711;51.972;21.204;2024-01-15T15:42:21;12.20;;;7.00;;
50745;SDS011;36711;51.972;21.204;2024-01-15T15:44:46;11.10;;;6.60;;
50745;SDS011;36711;51.972;21.204;2024-01-15T15:47:12;11.10;;;6.90;;
50745;SDS011;36711;51.972;21.204;2024-01-15T15:49:39;9.90;;;6.30;;
50745;SDS011;36711;51.972;21.204;2024-01-15T15:52:06;11.80;;;6.80;;
50745;SDS011;36711;51.972;21.204;2024-01-15T15:54:31;10.10;;;6.60;;
50745;SDS011;36711;51.972;21.204;2024-01-15T15:56:56;10.70;;;6.50;;
50745;SDS011;36711;51.972;21.204;2024-01-15T15:59:22;11.10;;;6.40;;
50745;SDS011;36711;51.972;21.204;2024-01-15T16:01:49;10.40;;;6.30;;
50745;SDS011;36711;51.972;21.204;2024-01-15T16:04:14;9.10;;;5.90;;
50745;SDS011;36711;51.972;21.204;2024-01-15T16:06:40;9.00;;;6.00;;
50745;SDS011;36711;51.972;21.204;2024-01-15T16:14:49;9.20;;;5.80;;
50745;SDS011;36711;51.972;21.204;2024-01-15T16:17:14;10.00;;;5.60;;
50745;SDS011;36711;51.972;21.204;2024-01-15T16:19:39;8.60;;;5.70;;
50745;SDS011;36711;51.972;21.204;2024-01-15T16:22:05;9.40;;;6.00;;
50745;SDS011;36711;51.972;21.204;2024-01-15T16:24:30;9.10;;;5.80;;
50745;SDS011;36711;51.972;21.204;2024-01-15T16:27:33;7.40;;;4.90;;
50745;SDS011;36711;51.972;21.204;2024-01-15T16:34:07;7.00;;;5.10;;
50745;SDS011;36711;51.972;21.204;2024-01-15T16:36:37;7.60;;;5.30;;
50745;SDS011;36711;51.972;21.204;2024-01-15T16:42:23;9.60;;;5.50;;
50745;SDS011;36711;51.972;21.204;2024-01-15T16:45:56;14.40;;;7.40;;
50745;SDS011;36711;51.972;21.204;2024-01-15T16:52:07;10.60;;;6.00;;
50745;SDS011;36711;51.972;21.204;2024-01-15T16:55:24;13.10;;;5.70;;
50745;SDS011;36711;51.972;21.204;2024-01-15T16:58:21;15.30;;;5.70;;
50745;SDS011;36711;51.972;21.204;2024-01-15T17:01:12;11.50;;;5.60;;
50745;SDS011;36711;51.972;21.204;2024-01-15T17:03:42;10.80;;;5.30;;
50745;SDS011;36711;51.972;21.204;2024-01-15T17:06:30;12.00;;;5.40;;
50745;SDS011;36711;51.972;21.204;2024-01-15T17:09:54;11.40;;;5.80;;
50745;SDS011;36711;51.972;21.204;2024-01-15T17:20:10;12.30;;;5.20;;
50745;SDS011;36711;51.972;21.204;2024-01-15T17:26:23;10.30;;;4.70;;
50745;SDS011;36711;51.972;21.204;2024-01-15T17:29:38;12.30;;;5.10;;
50745;SDS011;36711;51.972;21.204;2024-01-15T17:42:00;12.50;;;6.20;;
50745;SDS011;36711;51.972;21.204;2024-01-15T17:44:33;11.00;;;5.60;;
50745;SDS011;36711;51.972;21.204;2024-01-15T17:47:20;13.80;;;5.50;;
50745;SDS011;36711;51.972;21.204;2024-01-15T17:53:22;11.80;;;5.40;;
50745;SDS011;36711;51.972;21.204;2024-01-15T17:56:14;12.20;;;5.80;;
50745;SDS011;36711;51.972;21.204;2024-01-15T17:59:14;12.90;;;5.70;;
50745;SDS011;36711;51.972;21.204;2024-01-15T18:02:22;17.10;;;8.20;;
50745;SDS011;36711;51.972;21.204;2024-01-15T18:05:03;11.50;;;5.70;;
50745;SDS011;36711;51.972;21.204;2024-01-15T18:08:39;37.50;;;15.70;;
50745;SDS011;36711;51.972;21.204;2024-01-15T18:11:19;42.80;;;26.80;;
50745;SDS011;36711;51.972;21.204;2024-01-15T18:14:46;23.80;;;16.40;;
50745;SDS011;36711;51.972;21.204;2024-01-15T18:17:53;12.30;;;7.30;;
50745;SDS011;36711;51.972;21.204;2024-01-15T18:21:22;16.40;;;6.80;;
50745;SDS011;36711;51.972;21.204;2024-01-15T18:27:42;27.30;;;15.40;;
50745;SDS011;36711;51.972;21.204;2024-01-15T18:30:23;23.50;;;12.90;;
50745;SDS011;36711;51.972;21.204;2024-01-15T18:39:45;20.90;;;7.50;;
50745;SDS011;36711;51.972;21.204;2024-01-15T18:55:22;17.70;;;8.00;;
50745;SDS011;36711;51.972;21.204;2024-01-15T19:05:05;11.60;;;6.50;;
50745;SDS011;36711;51.972;21.204;2024-01-15T19:08:16;12.50;;;6.40;;
50745;SDS011;36711;51.972;21.204;2024-01-15T19:10:57;11.80;;;6.30;;
50745;SDS011;36711;51.972;21.204;2024-01-15T19:13:39;9.50;;;5.50;;
50745;SDS011;36711;51.972;21.204;2024-01-15T19:16:30;8.90;;;4.80;;
50745;SDS011;36711;51.972;21.204;2024-01-15T19:19:40;8.60;;;4.60;;
50745;SDS011;36711;51.972;21.204;2024-01-15T19:22:56;9.10;;;5.10;;
50745;SDS011;36711;51.972;21.204;2024-01-15T19:29:22;7.40;;;4.10;;
50745;SDS011;36711;51.972;21.204;2024-01-15T19:35:39;3.90;;;2.70;;
50745;SDS011;36711;51.972;21.204;2024-01-15T19:44:13;5.30;;;2.90;;
50745;SDS011;36711;51.972;21.204;2024-01-15T19:46:45;18.80;;;9.50;;
50745;SDS011;36711;51.972;21.204;2024-01-15T19:49:48;6.80;;;3.10;;
50745;SDS011;36711;51.972;21.204;2024-01-15T19:55:59;3.90;;;2.20;;
50745;SDS011;36711;51.972;21.204;2024-01-15T19:58:53;25.10;;;13.70;;
50745;SDS011;36711;51.972;21.204;2024-01-15T20:01:52;6.00;;;2.90;;
50745;SDS011;36711;51.972;21.204;2024-01-15T20:04:42;7.00;;;3.30;;
50745;SDS011;36711;51.972;21.204;2024-01-15T20:08:19;6.60;;;3.00;;
50745;SDS011;36711;51.972;21.204;2024-01-15T20:11:31;5.20;;;3.20;;
50745;SDS011;36711;51.972;21.204;2024-01-15T20:14:47;4.60;;;2.10;;
50745;SDS011;36711;51.972;21.204;2024-01-15T20:21:51;23.70;;;6.40;;
50745;SDS011;36711;51.972;21.204;2024-01-15T20:25:21;8.60;;;2.40;;
50745;SDS011;36711;51.972;21.204;2024-01-15T20:31:17;3.90;;;2.20;;
50745;SDS011;36711;51.972;21.204;2024-01-15T20:34:00;20.20;;;9.30;;
50745;SDS011;36711;51.972;21.204;2024-01-15T20:39:58;16.00;;;5.90;;
50745;SDS011;36711;51.972;21.204;2024-01-15T20:45:42;6.40;;;2.80;;
50745;SDS011;36711;51.972;21.204;2024-01-15T20:52:15;1.90;;;1.40;;
50745;SDS011;36711;51.972;21.204;2024-01-15T20:55:13;2.90;;;1.80;;
50745;SDS011;36711;51.972;21.204;2024-01-15T20:59:04;3.70;;;2.60;;
50745;SDS011;36711;51.972;21.204;2024-01-15T21:01:25;3.40;;;2.10;;
50745;SDS011;36711;51.972;21.204;2024-01-15T21:07:38;4.50;;;2.10;;
50745;SDS011;36711;51.972;21.204;2024-01-15T21:10:32;2.10;;;1.80;;
50745;SDS011;36711;51.972;21.204;2024-01-15T21:13:29;3.50;;;2.40;;
50745;SDS011;36711;51.972;21.204;2024-01-15T21:39:10;6.10;;;2.10;;
50745;SDS011;36711;51.972;21.204;2024-01-15T21:42:32;5.20;;;2.30;;
50745;SDS011;36711;51.972;21.204;2024-01-15T21:45:41;4.00;;;2.00;;
50745;SDS011;36711;51.972;21.204;2024-01-15T21:55:21;1.70;;;1.50;;
50745;SDS011;36711;51.972;21.204;2024-01-15T21:58:12;2.40;;;1.50;;
50745;SDS011;36711;51.972;21.204;2024-01-15T22:00:52;1.90;;;1.50;;
50745;SDS011;36711;51.972;21.204;2024-01-15T22:03:47;1.60;;;1.50;;
50745;SDS011;36711;51.972;21.204;2024-01-15T22:06:22;1.40;;;1.20;;
50745;SDS011;36711;51.972;21.204;2024-01-15T22:09:07;2.10;;;1.40;;
50745;SDS011;36711;51.972;21.204;2024-01-15T22:11:54;2.50;;;1.70;;
50745;SDS011;36711;51.972;21.204;2024-01-15T22:15:12;1.60;;;1.10;;
50745;SDS011;36711;51.972;21.204;2024-01-15T22:18:32;3.40;;;2.20;;
50745;SDS011;36711;51.972;21.204;2024-01-15T22:22:03;2.90;;;2.00;;
50745;SDS011;36711;51.972;21.204;2024-01-15T22:24:29;2.10;;;1.60;;
50745;SDS011;36711;51.972;21.204;2024-01-15T22:39:55;1.60;;;1.50;;
50745;SDS011;36711;51.972;21.204;2024-01-15T22:55:55;1.50;;;1.30;;
50745;SDS011;36711;51.972;21.204;2024-01-15T23:05:46;4.00;;;1.50;;
50745;SDS011;36711;51.972;21.204;2024-01-15T23:08:52;2.80;;;1.40;;
50745;SDS011;36711;51.972;21.204;2024-01-15T23:18:42;1.10;;;1.10;;
50745;SDS011;36711;51.972;21.204;2024-01-15T23:28:32;1.30;;;1.10;;
50745;SDS011;36711;51.972;21.204;2024-01-15T23:48:12;1.10;;;1.00;;
50745;SDS011;36711;51.972;21.204;2024-01-15T23:54:22;1.50;;;1.40;;
50745;SDS011;36711;51.972;21.204;2024-01-15T23:57:25;1.20;;;1.20;;
